CheckWX is a tool to help pilots better visualize weather data.  It is not intended as a substitute for an official pre-flight weather briefing.

07:32:57 UTC

KENW METAR
Kenosha Regional Airport
Kenosha, Wisconsin, USA
Current

40 mins ago

KENW 030653Z AUTO 00000KT 10SM FEW120 05/02 A3010 RMK AO2 SLP197 T00500017
Observed
Apr-3 @ 06:53 UTC
Visibility
Flight Rules
VFR
Cloud Levels
  • Few at 12,000' AGL
Temperature
C / 41°F
Dewpoint
C / 36°F
Humidity
81%
Altimeter
30.1" Hg
Pressure
1019.32 hPa
Previous

2 hours ago

KENW 030553Z AUTO 19003KT 10SM FEW110 06/01 A3011 RMK AO2 SLP200 T00560011 10083 20039 401281017 53002
Observed
Apr-3 @ 05:53 UTC
Wind
  • 190° at 3 KTS
Visibility
Flight Rules
VFR
Cloud Levels
  • Few at 11,000' AGL
Dewpoint
C / 34°F
Humidity
71%
Altimeter
30.11" Hg
Pressure
1019.62 hPa
Previous

3 hours ago

KENW 030453Z AUTO 15003KT 10SM CLR 06/02 A3011 RMK AO2 SLP199 T00610017
Observed
Apr-3 @ 04:53 UTC
Wind
  • 150° at 3 KTS
Visibility
Flight Rules
VFR
Cloud Levels
  • Clear skies
Temperature
C / 43°F
Dewpoint
C / 36°F
Humidity
76%
Altimeter
30.11" Hg
Pressure
1019.62 hPa